sensor_id;sensor_type;location;lat;lon;timestamp;temperature;humidity
45329;DHT22;72636;48.160;11.428;2024-01-30T00:01:19;0.50;99.90
45329;DHT22;72636;48.160;11.428;2024-01-30T00:03:45;0.50;99.90
45329;DHT22;72636;48.160;11.428;2024-01-30T00:06:11;0.50;99.90
45329;DHT22;72636;48.160;11.428;2024-01-30T00:08:37;0.40;99.90
45329;DHT22;72636;48.160;11.428;2024-01-30T00:11:03;0.40;99.90
45329;DHT22;72636;48.160;11.428;2024-01-30T00:13:29;0.40;99.90
45329;DHT22;72636;48.160;11.428;2024-01-30T00:15:54;0.30;99.90
45329;DHT22;72636;48.160;11.428;2024-01-30T00:18:20;0.30;99.90
45329;DHT22;72636;48.160;11.428;2024-01-30T00:20:46;0.30;99.90
45329;DHT22;72636;48.160;11.428;2024-01-30T00:23:13;0.30;99.90
45329;DHT22;72636;48.160;11.428;2024-01-30T00:25:38;0.50;99.90
45329;DHT22;72636;48.160;11.428;2024-01-30T00:28:04;0.40;99.90
45329;DHT22;72636;48.160;11.428;2024-01-30T00:30:31;0.30;99.90
45329;DHT22;72636;48.160;11.428;2024-01-30T00:32:56;0.30;99.90
45329;DHT22;72636;48.160;11.428;2024-01-30T00:35:22;0.30;99.90
45329;DHT22;72636;48.160;11.428;2024-01-30T00:37:49;0.30;99.90
45329;DHT22;72636;48.160;11.428;2024-01-30T00:40:15;0.20;99.90
45329;DHT22;72636;48.160;11.428;2024-01-30T00:42:44;0.20;99.90
45329;DHT22;72636;48.160;11.428;2024-01-30T00:45:14;0.30;99.90
45329;DHT22;72636;48.160;11.428;2024-01-30T00:47:41;0.20;99.90
45329;DHT22;72636;48.160;11.428;2024-01-30T00:50:09;0.20;99.90
45329;DHT22;72636;48.160;11.428;2024-01-30T00:52:35;0.20;99.90
45329;DHT22;72636;48.160;11.428;2024-01-30T00:55:01;0.20;99.90
45329;DHT22;72636;48.160;11.428;2024-01-30T00:57:27;0.20;99.90
45329;DHT22;72636;48.160;11.428;2024-01-30T00:59:52;0.30;99.90
45329;DHT22;72636;48.160;11.428;2024-01-30T01:02:18;0.20;99.90
45329;DHT22;72636;48.160;11.428;2024-01-30T01:04:44;0.10;99.90
45329;DHT22;72636;48.160;11.428;2024-01-30T01:07:11;0.20;99.90
45329;DHT22;72636;48.160;11.428;2024-01-30T01:09:37;0.10;99.90
45329;DHT22;72636;48.160;11.428;2024-01-30T01:12:03;0.10;99.90
45329;DHT22;72636;48.160;11.428;2024-01-30T01:14:29;0.10;99.90
45329;DHT22;72636;48.160;11.428;2024-01-30T01:16:55;0.10;99.90
45329;DHT22;72636;48.160;11.428;2024-01-30T01:19:21;0.10;99.90
45329;DHT22;72636;48.160;11.428;2024-01-30T01:21:49;0.00;99.90
45329;DHT22;72636;48.160;11.428;2024-01-30T01:24:15;0.00;99.90
45329;DHT22;72636;48.160;11.428;2024-01-30T01:26:40;0.00;99.90
45329;DHT22;72636;48.160;11.428;2024-01-30T01:29:06;0.00;99.90
45329;DHT22;72636;48.160;11.428;2024-01-30T01:31:40;0.00;99.90
45329;DHT22;72636;48.160;11.428;2024-01-30T01:34:10;-0.10;99.90
45329;DHT22;72636;48.160;11.428;2024-01-30T01:36:35;0.00;99.90
45329;DHT22;72636;48.160;11.428;2024-01-30T01:39:01;0.00;99.90
45329;DHT22;72636;48.160;11.428;2024-01-30T01:41:31;-0.10;99.90
45329;DHT22;72636;48.160;11.428;2024-01-30T01:43:57;-0.10;99.90
45329;DHT22;72636;48.160;11.428;2024-01-30T01:46:26;-0.10;99.90
45329;DHT22;72636;48.160;11.428;2024-01-30T01:48:52;-0.10;99.90
45329;DHT22;72636;48.160;11.428;2024-01-30T01:51:17;-0.10;99.90
45329;DHT22;72636;48.160;11.428;2024-01-30T01:53:44;0.00;99.90
45329;DHT22;72636;48.160;11.428;2024-01-30T01:56:10;-0.10;99.90
45329;DHT22;72636;48.160;11.428;2024-01-30T01:58:36;0.00;99.90
45329;DHT22;72636;48.160;11.428;2024-01-30T02:01:03;-0.20;99.90
45329;DHT22;72636;48.160;11.428;2024-01-30T02:03:30;-0.10;99.90
45329;DHT22;72636;48.160;11.428;2024-01-30T02:05:56;-0.10;99.90
45329;DHT22;72636;48.160;11.428;2024-01-30T02:08:23;-0.10;99.90
45329;DHT22;72636;48.160;11.428;2024-01-30T02:10:49;-0.10;99.90
45329;DHT22;72636;48.160;11.428;2024-01-30T02:13:15;-0.20;99.90
45329;DHT22;72636;48.160;11.428;2024-01-30T02:15:41;-0.10;99.90
45329;DHT22;72636;48.160;11.428;2024-01-30T02:18:07;-0.20;99.90
45329;DHT22;72636;48.160;11.428;2024-01-30T02:20:35;-0.10;99.90
45329;DHT22;72636;48.160;11.428;2024-01-30T02:23:01;-0.20;99.90
45329;DHT22;72636;48.160;11.428;2024-01-30T02:25:40;-0.20;99.90
45329;DHT22;72636;48.160;11.428;2024-01-30T02:28:12;-0.20;99.90
45329;DHT22;72636;48.160;11.428;2024-01-30T02:30:39;-0.30;99.90
45329;DHT22;72636;48.160;11.428;2024-01-30T02:33:09;-0.30;99.90
45329;DHT22;72636;48.160;11.428;2024-01-30T02:35:34;-0.20;99.90
45329;DHT22;72636;48.160;11.428;2024-01-30T02:38:00;-0.20;99.90
45329;DHT22;72636;48.160;11.428;2024-01-30T02:40:26;-0.30;99.90
45329;DHT22;72636;48.160;11.428;2024-01-30T02:42:52;-0.10;99.90
45329;DHT22;72636;48.160;11.428;2024-01-30T02:45:18;-0.40;99.90
45329;DHT22;72636;48.160;11.428;2024-01-30T02:47:44;-0.30;99.90
45329;DHT22;72636;48.160;11.428;2024-01-30T02:50:09;-0.30;99.90
45329;DHT22;72636;48.160;11.428;2024-01-30T02:52:35;-0.40;99.90
45329;DHT22;72636;48.160;11.428;2024-01-30T02:55:01;-0.40;99.90
45329;DHT22;72636;48.160;11.428;2024-01-30T02:57:28;-0.30;99.90
45329;DHT22;72636;48.160;11.428;2024-01-30T02:59:54;-0.30;99.90
45329;DHT22;72636;48.160;11.428;2024-01-30T03:02:19;-0.40;99.90
45329;DHT22;72636;48.160;11.428;2024-01-30T03:04:46;-0.30;99.90
45329;DHT22;72636;48.160;11.428;2024-01-30T03:07:12;-0.40;99.90
45329;DHT22;72636;48.160;11.428;2024-01-30T03:09:38;-0.30;99.90
45329;DHT22;72636;48.160;11.428;2024-01-30T03:12:05;-0.30;99.90
45329;DHT22;72636;48.160;11.428;2024-01-30T03:14:31;-0.40;99.90
45329;DHT22;72636;48.160;11.428;2024-01-30T03:16:56;-0.40;99.90
45329;DHT22;72636;48.160;11.428;2024-01-30T03:19:22;-0.50;99.90
45329;DHT22;72636;48.160;11.428;2024-01-30T03:21:48;-0.40;99.90
45329;DHT22;72636;48.160;11.428;2024-01-30T03:24:13;-0.40;99.90
45329;DHT22;72636;48.160;11.428;2024-01-30T03:26:39;-0.40;99.90
45329;DHT22;72636;48.160;11.428;2024-01-30T03:29:04;-0.20;99.90
45329;DHT22;72636;48.160;11.428;2024-01-30T03:31:30;-0.40;99.90
45329;DHT22;72636;48.160;11.428;2024-01-30T03:33:56;-0.30;99.90
45329;DHT22;72636;48.160;11.428;2024-01-30T03:36:21;-0.40;99.90
45329;DHT22;72636;48.160;11.428;2024-01-30T03:38:47;-0.40;99.90
45329;DHT22;72636;48.160;11.428;2024-01-30T03:41:12;-0.30;99.90
45329;DHT22;72636;48.160;11.428;2024-01-30T03:43:38;-0.50;99.90
45329;DHT22;72636;48.160;11.428;2024-01-30T03:46:04;-0.40;99.90
45329;DHT22;72636;48.160;11.428;2024-01-30T03:48:30;-0.50;99.90
45329;DHT22;72636;48.160;11.428;2024-01-30T03:50:55;-0.50;99.90
45329;DHT22;72636;48.160;11.428;2024-01-30T03:53:22;-0.40;99.90
45329;DHT22;72636;48.160;11.428;2024-01-30T03:55:47;-0.50;99.90
45329;DHT22;72636;48.160;11.428;2024-01-30T03:58:13;-0.50;99.90
45329;DHT22;72636;48.160;11.428;2024-01-30T04:00:39;-0.50;99.90
45329;DHT22;72636;48.160;11.428;2024-01-30T04:03:06;-0.50;99.90
45329;DHT22;72636;48.160;11.428;2024-01-30T04:05:33;-0.50;99.90
45329;DHT22;72636;48.160;11.428;2024-01-30T04:07:59;-0.50;99.90
45329;DHT22;72636;48.160;11.428;2024-01-30T04:10:25;-0.40;99.90
45329;DHT22;72636;48.160;11.428;2024-01-30T04:12:51;-0.40;99.90
45329;DHT22;72636;48.160;11.428;2024-01-30T04:15:20;-0.60;99.90
45329;DHT22;72636;48.160;11.428;2024-01-30T04:17:45;-0.60;99.90
45329;DHT22;72636;48.160;11.428;2024-01-30T04:20:15;-0.60;99.90
45329;DHT22;72636;48.160;11.428;2024-01-30T04:22:44;-0.70;99.90
45329;DHT22;72636;48.160;11.428;2024-01-30T04:25:11;-0.60;99.90
45329;DHT22;72636;48.160;11.428;2024-01-30T04:27:37;-0.70;99.90
45329;DHT22;72636;48.160;11.428;2024-01-30T04:30:03;-0.70;99.90
45329;DHT22;72636;48.160;11.428;2024-01-30T04:32:29;-0.70;99.90
45329;DHT22;72636;48.160;11.428;2024-01-30T04:34:54;-0.50;99.90
45329;DHT22;72636;48.160;11.428;2024-01-30T04:37:20;-0.60;99.90
45329;DHT22;72636;48.160;11.428;2024-01-30T04:39:46;-0.70;99.90
45329;DHT22;72636;48.160;11.428;2024-01-30T04:42:11;-0.70;99.90
45329;DHT22;72636;48.160;11.428;2024-01-30T04:44:37;-0.70;99.90
45329;DHT22;72636;48.160;11.428;2024-01-30T04:47:03;-0.70;99.90
45329;DHT22;72636;48.160;11.428;2024-01-30T04:49:30;-0.70;99.90
45329;DHT22;72636;48.160;11.428;2024-01-30T04:51:56;-0.80;99.90
45329;DHT22;72636;48.160;11.428;2024-01-30T04:54:22;-0.70;99.90
45329;DHT22;72636;48.160;11.428;2024-01-30T04:56:47;-0.80;99.90
45329;DHT22;72636;48.160;11.428;2024-01-30T04:59:13;-0.70;99.90
45329;DHT22;72636;48.160;11.428;2024-01-30T05:01:38;-0.80;99.90
45329;DHT22;72636;48.160;11.428;2024-01-30T05:04:07;-0.80;99.90
45329;DHT22;72636;48.160;11.428;2024-01-30T05:06:33;-0.80;99.90
45329;DHT22;72636;48.160;11.428;2024-01-30T05:08:58;-0.70;99.90
45329;DHT22;72636;48.160;11.428;2024-01-30T05:11:24;-0.70;99.90
45329;DHT22;72636;48.160;11.428;2024-01-30T05:13:50;-0.80;99.90
45329;DHT22;72636;48.160;11.428;2024-01-30T05:16:15;-0.80;99.90
45329;DHT22;72636;48.160;11.428;2024-01-30T05:18:41;-0.80;99.90
45329;DHT22;72636;48.160;11.428;2024-01-30T05:21:07;-0.80;99.90
45329;DHT22;72636;48.160;11.428;2024-01-30T05:23:32;-0.80;99.90
45329;DHT22;72636;48.160;11.428;2024-01-30T05:25:59;-0.80;99.90
45329;DHT22;72636;48.160;11.428;2024-01-30T05:28:26;-0.90;99.90
45329;DHT22;72636;48.160;11.428;2024-01-30T05:30:52;-0.80;99.90
45329;DHT22;72636;48.160;11.428;2024-01-30T05:33:17;-0.90;99.90
45329;DHT22;72636;48.160;11.428;2024-01-30T05:35:43;-0.80;99.90
45329;DHT22;72636;48.160;11.428;2024-01-30T05:38:09;-0.90;99.90
45329;DHT22;72636;48.160;11.428;2024-01-30T05:40:35;-0.90;99.90
45329;DHT22;72636;48.160;11.428;2024-01-30T05:43:00;-0.80;99.90
45329;DHT22;72636;48.160;11.428;2024-01-30T05:45:28;-0.90;99.90
45329;DHT22;72636;48.160;11.428;2024-01-30T05:47:53;-0.90;99.90
45329;DHT22;72636;48.160;11.428;2024-01-30T05:50:21;-0.90;99.90
45329;DHT22;72636;48.160;11.428;2024-01-30T05:52:48;-0.90;99.90
45329;DHT22;72636;48.160;11.428;2024-01-30T05:55:14;-0.90;99.90
45329;DHT22;72636;48.160;11.428;2024-01-30T05:57:40;-0.90;99.90
45329;DHT22;72636;48.160;11.428;2024-01-30T06:00:07;-0.90;99.90
45329;DHT22;72636;48.160;11.428;2024-01-30T06:02:34;-0.90;99.90
45329;DHT22;72636;48.160;11.428;2024-01-30T06:04:59;-0.90;99.90
45329;DHT22;72636;48.160;11.428;2024-01-30T06:07:25;-0.90;99.90
45329;DHT22;72636;48.160;11.428;2024-01-30T06:09:51;-1.00;99.90
45329;DHT22;72636;48.160;11.428;2024-01-30T06:12:18;-1.00;99.90
45329;DHT22;72636;48.160;11.428;2024-01-30T06:14:43;-1.00;99.90
45329;DHT22;72636;48.160;11.428;2024-01-30T06:17:09;-0.90;99.90
45329;DHT22;72636;48.160;11.428;2024-01-30T06:19:37;-0.90;99.90
45329;DHT22;72636;48.160;11.428;2024-01-30T06:22:04;-1.00;99.90
45329;DHT22;72636;48.160;11.428;2024-01-30T06:24:30;-1.00;99.90
45329;DHT22;72636;48.160;11.428;2024-01-30T06:26:55;-1.00;99.90
45329;DHT22;72636;48.160;11.428;2024-01-30T06:29:22;-0.90;99.90
45329;DHT22;72636;48.160;11.428;2024-01-30T06:31:51;-1.00;99.90
45329;DHT22;72636;48.160;11.428;2024-01-30T06:34:16;-1.00;99.90
45329;DHT22;72636;48.160;11.428;2024-01-30T06:36:42;-0.90;99.90
45329;DHT22;72636;48.160;11.428;2024-01-30T06:39:08;-0.90;99.90
45329;DHT22;72636;48.160;11.428;2024-01-30T06:41:34;-0.90;99.90
45329;DHT22;72636;48.160;11.428;2024-01-30T06:44:01;-0.90;99.90
45329;DHT22;72636;48.160;11.428;2024-01-30T06:46:27;-0.90;99.90
45329;DHT22;72636;48.160;11.428;2024-01-30T06:48:53;-0.80;99.90
45329;DHT22;72636;48.160;11.428;2024-01-30T06:51:18;-0.80;99.90
45329;DHT22;72636;48.160;11.428;2024-01-30T06:53:44;-0.90;99.90
45329;DHT22;72636;48.160;11.428;2024-01-30T06:56:10;-0.90;99.90
45329;DHT22;72636;48.160;11.428;2024-01-30T06:58:36;-0.70;99.90
45329;DHT22;72636;48.160;11.428;2024-01-30T07:01:04;-0.90;99.90
45329;DHT22;72636;48.160;11.428;2024-01-30T07:03:29;-0.90;99.90
45329;DHT22;72636;48.160;11.428;2024-01-30T07:05:55;-0.80;99.90
45329;DHT22;72636;48.160;11.428;2024-01-30T07:08:21;-0.90;99.90
45329;DHT22;72636;48.160;11.428;2024-01-30T07:10:47;-0.90;99.90
45329;DHT22;72636;48.160;11.428;2024-01-30T07:13:14;-0.80;99.90
45329;DHT22;72636;48.160;11.428;2024-01-30T07:15:42;-0.80;99.90
45329;DHT22;72636;48.160;11.428;2024-01-30T07:18:07;-0.80;99.90
45329;DHT22;72636;48.160;11.428;2024-01-30T07:20:35;-0.60;99.90
45329;DHT22;72636;48.160;11.428;2024-01-30T07:23:02;-0.80;99.90
45329;DHT22;72636;48.160;11.428;2024-01-30T07:25:28;-0.70;99.90
45329;DHT22;72636;48.160;11.428;2024-01-30T07:27:55;-0.70;99.90
45329;DHT22;72636;48.160;11.428;2024-01-30T07:30:21;-0.60;99.90
45329;DHT22;72636;48.160;11.428;2024-01-30T07:32:48;-0.60;99.90
45329;DHT22;72636;48.160;11.428;2024-01-30T07:35:14;-0.60;99.90
45329;DHT22;72636;48.160;11.428;2024-01-30T07:37:40;-0.50;99.90
45329;DHT22;72636;48.160;11.428;2024-01-30T07:40:07;-0.50;99.90
45329;DHT22;72636;48.160;11.428;2024-01-30T07:42:33;-0.40;99.90
45329;DHT22;72636;48.160;11.428;2024-01-30T07:45:00;-0.30;99.90
45329;DHT22;72636;48.160;11.428;2024-01-30T07:47:26;-0.30;99.90
45329;DHT22;72636;48.160;11.428;2024-01-30T07:49:51;-0.30;99.90
45329;DHT22;72636;48.160;11.428;2024-01-30T07:52:18;-0.20;99.90
45329;DHT22;72636;48.160;11.428;2024-01-30T07:54:45;-0.10;99.90
45329;DHT22;72636;48.160;11.428;2024-01-30T07:57:10;0.10;99.90
45329;DHT22;72636;48.160;11.428;2024-01-30T07:59:36;0.00;99.90
45329;DHT22;72636;48.160;11.428;2024-01-30T08:02:01;0.10;99.90
45329;DHT22;72636;48.160;11.428;2024-01-30T08:04:27;0.20;99.90
45329;DHT22;72636;48.160;11.428;2024-01-30T08:06:53;0.40;99.90
45329;DHT22;72636;48.160;11.428;2024-01-30T08:09:20;0.50;99.90
45329;DHT22;72636;48.160;11.428;2024-01-30T08:11:45;0.50;99.90
45329;DHT22;72636;48.160;11.428;2024-01-30T08:14:12;0.60;99.90
45329;DHT22;72636;48.160;11.428;2024-01-30T08:16:39;0.70;99.90
45329;DHT22;72636;48.160;11.428;2024-01-30T08:19:04;0.80;99.90
45329;DHT22;72636;48.160;11.428;2024-01-30T08:21:31;0.90;99.90
45329;DHT22;72636;48.160;11.428;2024-01-30T08:24:05;1.10;99.90
45329;DHT22;72636;48.160;11.428;2024-01-30T08:26:32;1.20;99.90
45329;DHT22;72636;48.160;11.428;2024-01-30T08:28:57;1.30;99.90
45329;DHT22;72636;48.160;11.428;2024-01-30T08:31:23;1.40;99.90
45329;DHT22;72636;48.160;11.428;2024-01-30T08:33:49;1.60;99.90
45329;DHT22;72636;48.160;11.428;2024-01-30T08:36:17;1.70;99.90
45329;DHT22;72636;48.160;11.428;2024-01-30T08:38:43;1.80;99.90
45329;DHT22;72636;48.160;11.428;2024-01-30T08:41:10;2.00;99.90
45329;DHT22;72636;48.160;11.428;2024-01-30T08:43:37;2.20;99.90
45329;DHT22;72636;48.160;11.428;2024-01-30T08:46:03;2.40;99.90
45329;DHT22;72636;48.160;11.428;2024-01-30T08:48:29;2.50;99.90
45329;DHT22;72636;48.160;11.428;2024-01-30T08:50:56;2.80;99.90
45329;DHT22;72636;48.160;11.428;2024-01-30T08:53:22;3.10;99.90
45329;DHT22;72636;48.160;11.428;2024-01-30T08:55:47;3.50;99.90
45329;DHT22;72636;48.160;11.428;2024-01-30T08:58:13;3.90;99.90
45329;DHT22;72636;48.160;11.428;2024-01-30T09:00:39;4.20;99.90
45329;DHT22;72636;48.160;11.428;2024-01-30T09:03:04;4.70;99.90
45329;DHT22;72636;48.160;11.428;2024-01-30T09:05:30;5.10;99.90
45329;DHT22;72636;48.160;11.428;2024-01-30T09:07:56;5.50;99.90
45329;DHT22;72636;48.160;11.428;2024-01-30T09:10:21;5.80;99.90
45329;DHT22;72636;48.160;11.428;2024-01-30T09:12:47;6.10;99.90
45329;DHT22;72636;48.160;11.428;2024-01-30T09:15:15;6.40;99.90
45329;DHT22;72636;48.160;11.428;2024-01-30T09:17:40;6.70;99.90
45329;DHT22;72636;48.160;11.428;2024-01-30T09:20:06;7.10;99.90
45329;DHT22;72636;48.160;11.428;2024-01-30T09:22:32;7.30;99.90
45329;DHT22;72636;48.160;11.428;2024-01-30T09:24:58;7.60;99.90
45329;DHT22;72636;48.160;11.428;2024-01-30T09:27:24;7.70;99.90
45329;DHT22;72636;48.160;11.428;2024-01-30T09:29:49;7.80;99.90
45329;DHT22;72636;48.160;11.428;2024-01-30T09:32:15;7.80;99.90
45329;DHT22;72636;48.160;11.428;2024-01-30T09:34:41;7.90;99.90
45329;DHT22;72636;48.160;11.428;2024-01-30T09:37:08;8.20;99.90
45329;DHT22;72636;48.160;11.428;2024-01-30T09:39:33;8.50;99.90
45329;DHT22;72636;48.160;11.428;2024-01-30T09:42:18;9.00;99.90
45329;DHT22;72636;48.160;11.428;2024-01-30T09:44:45;9.60;99.90
45329;DHT22;72636;48.160;11.428;2024-01-30T09:47:15;10.10;99.90
45329;DHT22;72636;48.160;11.428;2024-01-30T09:49:43;10.50;99.90
45329;DHT22;72636;48.160;11.428;2024-01-30T09:52:09;11.00;99.90
45329;DHT22;72636;48.160;11.428;2024-01-30T09:54:35;11.50;99.90
45329;DHT22;72636;48.160;11.428;2024-01-30T09:57:01;11.90;99.90
45329;DHT22;72636;48.160;11.428;2024-01-30T09:59:27;12.20;99.90
45329;DHT22;72636;48.160;11.428;2024-01-30T10:01:53;12.50;99.50
45329;DHT22;72636;48.160;11.428;2024-01-30T10:04:18;12.80;98.20
45329;DHT22;72636;48.160;11.428;2024-01-30T10:06:44;13.00;92.20
45329;DHT22;72636;48.160;11.428;2024-01-30T10:09:10;13.30;94.70
45329;DHT22;72636;48.160;11.428;2024-01-30T10:11:36;13.60;94.20
45329;DHT22;72636;48.160;11.428;2024-01-30T10:14:02;14.00;93.60
45329;DHT22;72636;48.160;11.428;2024-01-30T10:16:28;14.30;91.40
45329;DHT22;72636;48.160;11.428;2024-01-30T10:18:54;14.50;92.10
45329;DHT22;72636;48.160;11.428;2024-01-30T10:21:21;14.90;89.90
45329;DHT22;72636;48.160;11.428;2024-01-30T10:23:46;15.20;81.20
45329;DHT22;72636;48.160;11.428;2024-01-30T10:26:13;15.50;79.40
45329;DHT22;72636;48.160;11.428;2024-01-30T10:28:41;15.60;78.60
45329;DHT22;72636;48.160;11.428;2024-01-30T10:31:08;15.80;75.60
45329;DHT22;72636;48.160;11.428;2024-01-30T10:33:34;16.10;76.40
45329;DHT22;72636;48.160;11.428;2024-01-30T10:36:03;16.40;62.70
45329;DHT22;72636;48.160;11.428;2024-01-30T10:38:29;16.80;60.70
45329;DHT22;72636;48.160;11.428;2024-01-30T10:41:00;17.30;56.10
45329;DHT22;72636;48.160;11.428;2024-01-30T10:43:32;17.80;54.90
45329;DHT22;72636;48.160;11.428;2024-01-30T10:46:21;18.40;46.40
45329;DHT22;72636;48.160;11.428;2024-01-30T10:48:58;19.50;42.10
45329;DHT22;72636;48.160;11.428;2024-01-30T10:51:28;19.70;36.10
45329;DHT22;72636;48.160;11.428;2024-01-30T10:53:57;20.50;36.70
45329;DHT22;72636;48.160;11.428;2024-01-30T10:56:24;20.90;32.40
45329;DHT22;72636;48.160;11.428;2024-01-30T10:58:53;21.40;31.10
45329;DHT22;72636;48.160;11.428;2024-01-30T11:01:23;21.30;28.60
45329;DHT22;72636;48.160;11.428;2024-01-30T11:03:53;21.10;26.90
45329;DHT22;72636;48.160;11.428;2024-01-30T11:06:22;20.70;24.90
45329;DHT22;72636;48.160;11.428;2024-01-30T11:09:04;20.10;23.60
45329;DHT22;72636;48.160;11.428;2024-01-30T11:11:57;19.50;25.50
45329;DHT22;72636;48.160;11.428;2024-01-30T11:14:28;18.90;26.30
45329;DHT22;72636;48.160;11.428;2024-01-30T11:16:57;18.20;27.80
45329;DHT22;72636;48.160;11.428;2024-01-30T11:19:27;17.70;29.10
45329;DHT22;72636;48.160;11.428;2024-01-30T11:21:56;17.20;29.90
45329;DHT22;72636;48.160;11.428;2024-01-30T11:24:25;16.80;33.40
45329;DHT22;72636;48.160;11.428;2024-01-30T11:26:58;16.40;34.10
45329;DHT22;72636;48.160;11.428;2024-01-30T11:29:28;16.10;33.10
45329;DHT22;72636;48.160;11.428;2024-01-30T11:31:55;15.70;36.10
45329;DHT22;72636;48.160;11.428;2024-01-30T11:34:23;15.40;37.30
45329;DHT22;72636;48.160;11.428;2024-01-30T11:36:52;15.30;36.90
45329;DHT22;72636;48.160;11.428;2024-01-30T11:39:20;15.00;42.10
45329;DHT22;72636;48.160;11.428;2024-01-30T11:41:50;14.90;43.30
45329;DHT22;72636;48.160;11.428;2024-01-30T11:44:17;14.70;45.80
45329;DHT22;72636;48.160;11.428;2024-01-30T11:46:43;14.50;42.20
45329;DHT22;72636;48.160;11.428;2024-01-30T11:49:09;14.40;41.90
45329;DHT22;72636;48.160;11.428;2024-01-30T11:51:36;14.30;41.80
45329;DHT22;72636;48.160;11.428;2024-01-30T11:54:02;14.20;44.10
45329;DHT22;72636;48.160;11.428;2024-01-30T11:56:29;14.20;44.50
45329;DHT22;72636;48.160;11.428;2024-01-30T11:58:55;14.10;47.90
45329;DHT22;72636;48.160;11.428;2024-01-30T12:01:21;14.20;46.50
45329;DHT22;72636;48.160;11.428;2024-01-30T12:03:50;14.20;49.60
45329;DHT22;72636;48.160;11.428;2024-01-30T12:06:16;14.20;46.90
45329;DHT22;72636;48.160;11.428;2024-01-30T12:08:42;14.20;44.90
45329;DHT22;72636;48.160;11.428;2024-01-30T12:11:07;14.10;44.20
45329;DHT22;72636;48.160;11.428;2024-01-30T12:13:34;14.20;43.80
45329;DHT22;72636;48.160;11.428;2024-01-30T12:16:01;14.20;45.90
45329;DHT22;72636;48.160;11.428;2024-01-30T12:18:26;14.30;44.30
45329;DHT22;72636;48.160;11.428;2024-01-30T12:21:03;14.40;43.10
45329;DHT22;72636;48.160;11.428;2024-01-30T12:23:30;14.50;42.70
45329;DHT22;72636;48.160;11.428;2024-01-30T12:25:56;14.60;42.20
45329;DHT22;72636;48.160;11.428;2024-01-30T12:28:22;14.60;49.30
45329;DHT22;72636;48.160;11.428;2024-01-30T12:30:48;14.70;43.80
45329;DHT22;72636;48.160;11.428;2024-01-30T12:33:17;14.90;40.20
45329;DHT22;72636;48.160;11.428;2024-01-30T12:35:47;15.00;35.20
45329;DHT22;72636;48.160;11.428;2024-01-30T12:38:17;15.10;43.50
45329;DHT22;72636;48.160;11.428;2024-01-30T12:40:44;15.20;47.80
45329;DHT22;72636;48.160;11.428;2024-01-30T12:43:10;15.20;42.50
45329;DHT22;72636;48.160;11.428;2024-01-30T12:45:36;15.40;41.00
45329;DHT22;72636;48.160;11.428;2024-01-30T12:48:02;15.50;40.20
45329;DHT22;72636;48.160;11.428;2024-01-30T12:50:28;15.60;41.90
45329;DHT22;72636;48.160;11.428;2024-01-30T12:52:54;15.70;37.50
45329;DHT22;72636;48.160;11.428;2024-01-30T12:55:20;15.70;39.30
45329;DHT22;72636;48.160;11.428;2024-01-30T12:57:45;15.70;41.10
45329;DHT22;72636;48.160;11.428;2024-01-30T13:00:11;15.80;35.90
45329;DHT22;72636;48.160;11.428;2024-01-30T13:02:37;15.90;40.30
45329;DHT22;72636;48.160;11.428;2024-01-30T13:05:04;16.00;36.80
45329;DHT22;72636;48.160;11.428;2024-01-30T13:07:30;16.30;38.40
45329;DHT22;72636;48.160;11.428;2024-01-30T13:09:57;16.40;37.00
45329;DHT22;72636;48.160;11.428;2024-01-30T13:12:30;16.70;32.10
45329;DHT22;72636;48.160;11.428;2024-01-30T13:14:58;16.80;38.00
45329;DHT22;72636;48.160;11.428;2024-01-30T13:17:26;17.00;36.40
45329;DHT22;72636;48.160;11.428;2024-01-30T13:19:52;17.10;37.70
45329;DHT22;72636;48.160;11.428;2024-01-30T13:22:19;17.20;37.30
45329;DHT22;72636;48.160;11.428;2024-01-30T13:24:47;17.30;31.30
45329;DHT22;72636;48.160;11.428;2024-01-30T13:27:13;17.20;30.40
45329;DHT22;72636;48.160;11.428;2024-01-30T13:29:39;17.10;29.60
45329;DHT22;72636;48.160;11.428;2024-01-30T13:32:05;17.10;34.70
45329;DHT22;72636;48.160;11.428;2024-01-30T13:34:31;17.10;36.70
45329;DHT22;72636;48.160;11.428;2024-01-30T13:36:56;17.30;37.10
45329;DHT22;72636;48.160;11.428;2024-01-30T13:39:22;17.40;38.50
45329;DHT22;72636;48.160;11.428;2024-01-30T13:41:48;17.40;38.00
45329;DHT22;72636;48.160;11.428;2024-01-30T13:44:15;17.60;36.00
45329;DHT22;72636;48.160;11.428;2024-01-30T13:46:43;17.60;33.70
45329;DHT22;72636;48.160;11.428;2024-01-30T13:49:09;17.60;33.40
45329;DHT22;72636;48.160;11.428;2024-01-30T13:51:34;17.70;34.80
45329;DHT22;72636;48.160;11.428;2024-01-30T13:54:00;17.80;30.60
45329;DHT22;72636;48.160;11.428;2024-01-30T13:56:27;17.70;30.00
45329;DHT22;72636;48.160;11.428;2024-01-30T13:58:53;17.80;32.80
45329;DHT22;72636;48.160;11.428;2024-01-30T14:01:18;17.70;35.10
45329;DHT22;72636;48.160;11.428;2024-01-30T14:03:45;17.60;35.10
45329;DHT22;72636;48.160;11.428;2024-01-30T14:06:11;17.40;33.40
45329;DHT22;72636;48.160;11.428;2024-01-30T14:08:37;17.30;36.20
45329;DHT22;72636;48.160;11.428;2024-01-30T14:11:03;17.20;35.00
45329;DHT22;72636;48.160;11.428;2024-01-30T14:13:29;17.00;35.70
45329;DHT22;72636;48.160;11.428;2024-01-30T14:15:56;16.70;38.40
45329;DHT22;72636;48.160;11.428;2024-01-30T14:18:22;16.70;37.70
45329;DHT22;72636;48.160;11.428;2024-01-30T14:20:47;16.60;37.20
45329;DHT22;72636;48.160;11.428;2024-01-30T14:23:13;16.40;42.90
45329;DHT22;72636;48.160;11.428;2024-01-30T14:25:39;16.30;41.20
45329;DHT22;72636;48.160;11.428;2024-01-30T14:28:05;16.10;46.20
45329;DHT22;72636;48.160;11.428;2024-01-30T14:30:31;16.10;43.80
45329;DHT22;72636;48.160;11.428;2024-01-30T14:32:56;15.90;47.10
45329;DHT22;72636;48.160;11.428;2024-01-30T14:35:22;15.80;41.30
45329;DHT22;72636;48.160;11.428;2024-01-30T14:37:47;15.70;41.30
45329;DHT22;72636;48.160;11.428;2024-01-30T14:40:13;15.60;42.00
45329;DHT22;72636;48.160;11.428;2024-01-30T14:42:39;15.50;46.90
45329;DHT22;72636;48.160;11.428;2024-01-30T14:45:06;15.40;46.70
45329;DHT22;72636;48.160;11.428;2024-01-30T14:47:32;15.20;50.10
45329;DHT22;72636;48.160;11.428;2024-01-30T14:49:57;15.10;55.20
45329;DHT22;72636;48.160;11.428;2024-01-30T14:52:23;15.00;50.50
45329;DHT22;72636;48.160;11.428;2024-01-30T14:54:49;14.90;50.90
45329;DHT22;72636;48.160;11.428;2024-01-30T14:57:15;14.80;49.90
45329;DHT22;72636;48.160;11.428;2024-01-30T14:59:41;14.80;51.10
45329;DHT22;72636;48.160;11.428;2024-01-30T15:02:07;14.70;50.30
45329;DHT22;72636;48.160;11.428;2024-01-30T15:04:33;14.60;50.10
45329;DHT22;72636;48.160;11.428;2024-01-30T15:06:58;14.60;51.10
45329;DHT22;72636;48.160;11.428;2024-01-30T15:09:24;14.50;49.50
45329;DHT22;72636;48.160;11.428;2024-01-30T15:11:52;14.40;56.10
45329;DHT22;72636;48.160;11.428;2024-01-30T15:14:17;14.20;54.50
45329;DHT22;72636;48.160;11.428;2024-01-30T15:16:43;14.10;55.10